Cerepovec, Russia
Current Conditions -  °F | °C
As of 8:30 AM on Thursday 18 Dec 2014 (Local Time) from ULWC Reporting Station
Light Snow Light Snow  
Wind Chill: 24°   Ceiling: 600
Heat Index: 32°   Visibility: 6mi
Dew Point: 32°   Wind: 9mph
Humidity: 100%   Direction: 290°WNW
Pressure: 29.35"   Gusts: NA
Location:  59.13°N, 37.88°E
Report Text: ULWC 180530Z 29004MPS 9000 -SN BKN006 OVC/// 00/00 Q0994 TEMPO1000 SN RMK QBB190 QFE736/0981 SC037
Loading
Personal Weather Stations






























Interactive Weather Map New forecast layout! Learn more

10-Day Weather Forecast

Advertisements
Track Severe Weather on mobile